createdAt,value
2023-01-15T00:00:52.450Z,91842.41
2023-01-15T00:03:19.000Z,91839.75
2023-01-15T00:05:45.609Z,91839.78
2023-01-15T00:08:12.298Z,91847.31
2023-01-15T00:10:38.911Z,91839.31
2023-01-15T00:13:05.544Z,91847.81
2023-01-15T00:15:32.425Z,91848.16
2023-01-15T00:17:59.182Z,91847.06
2023-01-15T00:20:25.865Z,91844.97
2023-01-15T00:22:52.505Z,91844.41
2023-01-15T00:25:37.570Z,91843.13
2023-01-15T00:28:04.296Z,91844.97
2023-01-15T00:30:30.953Z,91839.31
2023-01-15T00:32:58.884Z,91837.75
2023-01-15T00:35:26.554Z,91841.84
2023-01-15T00:37:53.253Z,91841.09
2023-01-15T00:40:20.329Z,91843.44
2023-01-15T00:42:53.905Z,91840.84
2023-01-15T00:45:21.383Z,91840.03
2023-01-15T00:47:50.425Z,91842.41
2023-01-15T00:50:17.202Z,91838.47
2023-01-15T00:52:43.963Z,91829.38
2023-01-15T00:55:10.600Z,91827.53
2023-01-15T00:57:37.342Z,91825.19
2023-01-15T01:00:04.769Z,91829.09
2023-01-15T01:02:31.470Z,91818.97
2023-01-15T01:04:58.204Z,91818.44
2023-01-15T01:07:24.804Z,91824.94
2023-01-15T01:09:51.489Z,91824.16
2023-01-15T01:12:18.148Z,91829.09
2023-01-15T01:14:44.905Z,91823.38
2023-01-15T01:17:12.713Z,91814.28
2023-01-15T01:19:39.360Z,91813.78
2023-01-15T01:22:06.048Z,91817.38
2023-01-15T01:24:32.758Z,91817.16
2023-01-15T01:26:59.399Z,91813.78
2023-01-15T01:29:25.977Z,91811.97
2023-01-15T01:31:52.724Z,91810.63
2023-01-15T01:34:19.685Z,91806.50
2023-01-15T01:36:46.336Z,91810.38
2023-01-15T01:39:15.340Z,91811.34
2023-01-15T01:41:42.131Z,91818.91
2023-01-15T01:44:37.459Z,91814.22
2023-01-15T01:47:31.166Z,91817.09
2023-01-15T01:50:04.768Z,91814.22
2023-01-15T01:52:42.062Z,91820.47
2023-01-15T01:55:09.278Z,91817.91
2023-01-15T01:57:35.873Z,91814.25
2023-01-15T02:00:04.997Z,91809.09
2023-01-15T02:02:31.722Z,91813.81
2023-01-15T02:04:58.539Z,91815.81
2023-01-15T02:07:25.652Z,91812.44
2023-01-15T02:09:52.273Z,91817.31
2023-01-15T02:12:37.398Z,91822.41
2023-01-15T02:15:09.311Z,91821.41
2023-01-15T02:17:54.496Z,91810.00
2023-01-15T02:20:30.978Z,91804.69
2023-01-15T02:23:29.714Z,91804.25
2023-01-15T02:26:17.799Z,91796.25
2023-01-15T02:28:45.256Z,91801.09
2023-01-15T02:31:19.458Z,91802.22
2023-01-15T02:33:50.139Z,91807.94
2023-01-15T02:36:17.538Z,91814.53
2023-01-15T02:38:46.309Z,91809.34
2023-01-15T02:41:16.626Z,91811.25
2023-01-15T02:43:45.398Z,91805.84
2023-01-15T02:46:12.130Z,91811.56
2023-01-15T02:48:38.752Z,91808.44
2023-01-15T02:51:14.515Z,91812.38
2023-01-15T02:53:42.794Z,91803.06
2023-01-15T02:56:15.439Z,91812.16
2023-01-15T02:58:42.697Z,91801.28
2023-01-15T03:01:19.493Z,91810.38
2023-01-15T03:03:46.089Z,91811.16
2023-01-15T03:06:24.216Z,91806.38
2023-01-15T03:08:50.890Z,91804.81
2023-01-15T03:11:19.140Z,91810.47
2023-01-15T03:14:22.197Z,91805.84
2023-01-15T03:16:59.869Z,91812.28
2023-01-15T03:19:29.819Z,91807.38
2023-01-15T03:22:23.223Z,91802.19
2023-01-15T03:25:01.295Z,91804.25
2023-01-15T03:27:28.013Z,91809.03
2023-01-15T03:29:58.910Z,91803.28
2023-01-15T03:32:25.584Z,91812.59
2023-01-15T03:34:53.555Z,91800.66
2023-01-15T03:37:20.885Z,91800.88
2023-01-15T03:39:47.496Z,91794.91
2023-01-15T03:42:42.181Z,91804.25
2023-01-15T03:45:23.512Z,91807.31
2023-01-15T03:47:53.959Z,91813.06
2023-01-15T03:50:32.771Z,91805.50
2023-01-15T03:53:13.672Z,91810.19
2023-01-15T03:56:08.831Z,91814.03
2023-01-15T03:58:42.471Z,91810.13
2023-01-15T04:01:11.036Z,91811.03
2023-01-15T04:03:37.745Z,91810.00
2023-01-15T04:06:04.825Z,91801.41
2023-01-15T04:08:33.805Z,91802.69
2023-01-15T04:11:01.478Z,91809.31
2023-01-15T04:13:31.079Z,91813.00
2023-01-15T04:15:58.365Z,91808.88
2023-01-15T04:18:25.130Z,91811.22
2023-01-15T04:20:51.804Z,91814.63
2023-01-15T04:23:18.473Z,91815.44
2023-01-15T04:25:45.151Z,91815.16
2023-01-15T04:28:13.039Z,91809.91
2023-01-15T04:30:39.782Z,91804.81
2023-01-15T04:33:06.476Z,91806.91
2023-01-15T04:35:33.131Z,91817.78
2023-01-15T04:37:59.831Z,91814.06
2023-01-15T04:40:44.949Z,91813.50
2023-01-15T04:43:30.638Z,91821.25
2023-01-15T04:45:57.433Z,91818.91
2023-01-15T04:48:24.090Z,91822.31
2023-01-15T04:50:50.710Z,91832.31
2023-01-15T04:53:17.337Z,91833.84
2023-01-15T04:55:44.024Z,91831.19
2023-01-15T04:58:10.900Z,91827.56
2023-01-15T05:00:37.656Z,91831.44
2023-01-15T05:03:04.298Z,91831.97
2023-01-15T05:05:32.627Z,91829.63
2023-01-15T05:07:59.369Z,91830.13
2023-01-15T05:10:26.083Z,91836.66
2023-01-15T05:12:52.722Z,91841.66
2023-01-15T05:15:19.335Z,91841.91
2023-01-15T05:17:46.009Z,91833.81
2023-01-15T05:20:12.981Z,91843.16
2023-01-15T05:22:39.671Z,91844.22
2023-01-15T05:25:06.604Z,91837.44
2023-01-15T05:27:33.223Z,91830.94
2023-01-15T05:29:59.881Z,91822.16
2023-01-15T05:32:26.554Z,91824.97
2023-01-15T05:34:53.165Z,91822.94
2023-01-15T05:37:19.725Z,91828.06
2023-01-15T05:39:46.417Z,91820.25
2023-01-15T05:42:13.059Z,91822.81
2023-01-15T05:44:39.775Z,91813.94
2023-01-15T05:47:07.729Z,91817.75
2023-01-15T05:49:34.429Z,91815.84
2023-01-15T05:52:01.494Z,91818.75
2023-01-15T05:54:29.964Z,91812.56
2023-01-15T05:56:56.570Z,91816.84
2023-01-15T05:59:24.902Z,91811.34
2023-01-15T06:01:51.947Z,91807.75
2023-01-15T06:04:21.205Z,91817.13
2023-01-15T06:06:48.723Z,91808.94
2023-01-15T06:09:15.442Z,91808.78
2023-01-15T06:11:42.162Z,91801.44
2023-01-15T06:14:08.794Z,91814.72
2023-01-15T06:16:35.511Z,91813.72
2023-01-15T06:19:04.211Z,91812.56
2023-01-15T06:21:31.340Z,91812.59
2023-01-15T06:23:58.052Z,91808.69
2023-01-15T06:26:24.884Z,91811.78
2023-01-15T06:28:51.906Z,91824.66
2023-01-15T06:31:20.062Z,91817.03
2023-01-15T06:33:46.838Z,91822.88
2023-01-15T06:36:18.080Z,91825.34
2023-01-15T06:38:44.860Z,91829.91
2023-01-15T06:41:35.072Z,91837.09
2023-01-15T06:44:20.092Z,91831.44
2023-01-15T06:47:06.386Z,91838.69
2023-01-15T06:49:33.531Z,91834.22
2023-01-15T06:52:00.424Z,91841.56
2023-01-15T06:54:27.318Z,91838.69
2023-01-15T06:56:54.000Z,91834.78
2023-01-15T06:59:20.690Z,91844.94
2023-01-15T07:01:47.406Z,91838.97
2023-01-15T07:04:14.718Z,91842.47
2023-01-15T07:06:41.448Z,91840.22
2023-01-15T07:09:08.257Z,91843.91
2023-01-15T07:11:34.954Z,91841.63
2023-01-15T07:14:07.424Z,91834.47
2023-01-15T07:16:37.179Z,91832.19
2023-01-15T07:19:04.081Z,91828.59
2023-01-15T07:21:30.779Z,91830.63
2023-01-15T07:24:01.036Z,91829.75
2023-01-15T07:26:27.876Z,91833.78
2023-01-15T07:28:54.674Z,91833.84
2023-01-15T07:31:21.353Z,91829.50
2023-01-15T07:33:48.067Z,91836.81
2023-01-15T07:36:14.807Z,91832.91
2023-01-15T07:38:41.609Z,91825.44
2023-01-15T07:41:26.440Z,91840.75
2023-01-15T07:44:11.758Z,91833.22
2023-01-15T07:46:58.666Z,91833.22
2023-01-15T07:49:44.045Z,91833.50
2023-01-15T07:52:10.651Z,91837.41
2023-01-15T07:54:37.291Z,91837.16
2023-01-15T07:57:04.182Z,91843.41
2023-01-15T07:59:30.794Z,91840.53
2023-01-15T08:01:57.522Z,91841.06
2023-01-15T08:04:24.273Z,91840.28
2023-01-15T08:06:50.991Z,91838.97
2023-01-15T08:09:17.578Z,91838.97
2023-01-15T08:12:02.903Z,91845.75
2023-01-15T08:14:48.311Z,91841.81
2023-01-15T08:17:14.924Z,91853.56
2023-01-15T08:19:41.574Z,91851.97
2023-01-15T08:22:08.227Z,91847.31
2023-01-15T08:24:34.903Z,91849.38
2023-01-15T08:27:01.570Z,91840.53
2023-01-15T08:29:28.135Z,91843.69
2023-01-15T08:31:54.872Z,91854.06
2023-01-15T08:34:21.580Z,91853.03
2023-01-15T08:36:49.664Z,91849.41
2023-01-15T08:39:16.234Z,91840.28
2023-01-15T08:41:42.931Z,91837.94
2023-01-15T08:44:10.127Z,91835.59
2023-01-15T08:46:36.842Z,91833.78
2023-01-15T08:49:05.235Z,91839.50
2023-01-15T08:51:32.470Z,91835.31
2023-01-15T08:53:59.110Z,91840.00
2023-01-15T08:56:25.755Z,91833.47
2023-01-15T08:58:52.428Z,91838.06
2023-01-15T09:01:19.134Z,91838.41
2023-01-15T09:03:45.839Z,91835.19
2023-01-15T09:06:13.573Z,91837.31
2023-01-15T09:08:40.300Z,91844.09
2023-01-15T09:11:09.697Z,91835.03
2023-01-15T09:13:36.594Z,91835.78
2023-01-15T09:16:04.301Z,91826.34
2023-01-15T09:18:31.148Z,91829.50
2023-01-15T09:20:58.103Z,91828.16
2023-01-15T09:23:24.843Z,91820.75
2023-01-15T09:25:58.706Z,91811.34
2023-01-15T09:28:25.332Z,91812.13
2023-01-15T09:30:52.118Z,91820.22
2023-01-15T09:33:18.881Z,91817.88
2023-01-15T09:35:45.801Z,91817.09
2023-01-15T09:38:16.415Z,91813.91
2023-01-15T09:41:03.608Z,91810.28
2023-01-15T09:43:50.158Z,91809.47
2023-01-15T09:46:32.424Z,91808.09
2023-01-15T09:49:20.316Z,91804.44
2023-01-15T09:51:59.650Z,91801.88
2023-01-15T09:54:44.564Z,91802.88
2023-01-15T09:57:14.336Z,91789.06
2023-01-15T09:59:43.235Z,91792.75
2023-01-15T10:02:22.288Z,91788.31
2023-01-15T10:04:51.221Z,91778.44
2023-01-15T10:07:41.968Z,91773.94
2023-01-15T10:10:17.432Z,91763.34
2023-01-15T10:12:45.409Z,91767.59
2023-01-15T10:15:28.138Z,91761.78
2023-01-15T10:17:58.299Z,91755.22
2023-01-15T10:20:43.596Z,91756.09
2023-01-15T10:23:28.503Z,91754.59
2023-01-15T10:26:01.579Z,91746.78
2023-01-15T10:28:32.576Z,91738.78
2023-01-15T10:31:07.409Z,91738.25
2023-01-15T10:33:47.688Z,91736.56
2023-01-15T10:36:21.698Z,91736.09
2023-01-15T10:39:06.950Z,91732.00
2023-01-15T10:41:33.527Z,91727.47
2023-01-15T10:44:14.776Z,91725.13
2023-01-15T10:46:41.495Z,91716.31
2023-01-15T10:49:13.880Z,91708.22
2023-01-15T10:51:48.709Z,91707.66
2023-01-15T10:54:27.608Z,91698.38
2023-01-15T10:57:15.518Z,91688.97
2023-01-15T10:59:49.448Z,91695.41
2023-01-15T11:02:34.165Z,91683.75
2023-01-15T11:05:02.143Z,91683.28
2023-01-15T11:07:40.184Z,91678.59
2023-01-15T11:10:14.431Z,91682.13
2023-01-15T11:13:00.618Z,91684.13
2023-01-15T11:15:45.661Z,91673.66
2023-01-15T11:18:44.658Z,91669.63
2023-01-15T11:21:18.589Z,91670.25
2023-01-15T11:23:45.260Z,91657.66
2023-01-15T11:26:21.656Z,91662.41
2023-01-15T11:28:48.469Z,91662.53
2023-01-15T11:31:15.490Z,91653.59
2023-01-15T11:33:58.198Z,91651.59
2023-01-15T11:36:26.587Z,91648.75
2023-01-15T11:38:53.480Z,91648.75
2023-01-15T11:41:45.857Z,91648.09
2023-01-15T11:44:31.050Z,91646.22
2023-01-15T11:47:16.573Z,91642.22
2023-01-15T11:50:11.713Z,91632.50
2023-01-15T11:52:55.222Z,91631.81
2023-01-15T11:55:23.766Z,91624.16
2023-01-15T11:57:50.563Z,91636.06
2023-01-15T12:00:44.884Z,91634.97
2023-01-15T12:03:16.956Z,91623.22
2023-01-15T12:05:48.298Z,91622.34
2023-01-15T12:08:42.236Z,91617.53
2023-01-15T12:11:26.617Z,91617.03
2023-01-15T12:14:34.244Z,91617.59
2023-01-15T12:17:07.001Z,91624.53
2023-01-15T12:20:21.784Z,91616.22
2023-01-15T12:23:04.243Z,91615.44
2023-01-15T12:25:51.447Z,91618.16
2023-01-15T12:28:29.536Z,91619.50
2023-01-15T12:31:08.912Z,91606.16
2023-01-15T12:34:01.646Z,91604.47
2023-01-15T12:36:32.055Z,91606.88
2023-01-15T12:39:12.907Z,91607.38
2023-01-15T12:41:58.889Z,91602.84
2023-01-15T12:44:53.144Z,91603.44
2023-01-15T12:47:24.517Z,91592.53
2023-01-15T12:50:11.796Z,91592.22
2023-01-15T12:52:40.482Z,91601.31
2023-01-15T12:55:14.320Z,91593.47
2023-01-15T12:57:44.394Z,91586.59
2023-01-15T13:00:44.295Z,91585.00
2023-01-15T13:03:27.253Z,91582.16
2023-01-15T13:05:57.584Z,91581.53
2023-01-15T13:08:28.889Z,91577.94
2023-01-15T13:10:55.554Z,91574.25
2023-01-15T13:13:29.220Z,91572.34
2023-01-15T13:16:37.379Z,91570.59
2023-01-15T13:19:22.959Z,91570.94
2023-01-15T13:21:53.104Z,91572.63
2023-01-15T13:24:19.705Z,91572.72
2023-01-15T13:26:49.149Z,91561.75
2023-01-15T13:30:01.644Z,91563.66
2023-01-15T13:32:29.974Z,91556.38
2023-01-15T13:35:06.686Z,91562.44
2023-01-15T13:37:36.375Z,91554.19
2023-01-15T13:40:13.265Z,91555.94
2023-01-15T13:42:40.887Z,91549.19
2023-01-15T13:45:13.288Z,91554.56
2023-01-15T13:47:43.392Z,91555.03
2023-01-15T13:50:30.628Z,91549.28
2023-01-15T13:53:02.588Z,91552.06
2023-01-15T13:55:34.725Z,91547.97
2023-01-15T13:58:01.494Z,91555.81
2023-01-15T14:00:32.836Z,91551.56
2023-01-15T14:03:00.919Z,91555.31
2023-01-15T14:05:34.766Z,91556.66
2023-01-15T14:08:02.530Z,91555.03
2023-01-15T14:10:32.118Z,91557.38
2023-01-15T14:13:09.534Z,91553.56
2023-01-15T14:15:45.113Z,91554.59
2023-01-15T14:18:23.855Z,91558.38
2023-01-15T14:21:03.946Z,91555.88
2023-01-15T14:23:52.988Z,91552.69
2023-01-15T14:26:38.304Z,91544.63
2023-01-15T14:29:21.570Z,91544.50
2023-01-15T14:32:05.107Z,91547.59
2023-01-15T14:34:33.564Z,91545.69
2023-01-15T14:37:21.222Z,91550.34
2023-01-15T14:39:56.091Z,91543.16
2023-01-15T14:42:41.180Z,91548.88
2023-01-15T14:45:10.909Z,91548.13
2023-01-15T14:47:46.242Z,91550.34
2023-01-15T14:50:31.310Z,91547.63
2023-01-15T14:53:22.974Z,91548.50
2023-01-15T14:55:55.713Z,91547.56
2023-01-15T14:58:31.288Z,91553.91
2023-01-15T15:00:59.544Z,91558.06
2023-01-15T15:03:37.476Z,91555.56
2023-01-15T15:06:05.819Z,91554.81
2023-01-15T15:08:32.967Z,91560.06
2023-01-15T15:10:59.638Z,91554.66
2023-01-15T15:13:31.211Z,91552.91
2023-01-15T15:16:07.613Z,91554.00
2023-01-15T15:18:58.421Z,91561.81
2023-01-15T15:21:26.739Z,91560.28
2023-01-15T15:24:03.219Z,91559.25
2023-01-15T15:26:34.391Z,91567.34
2023-01-15T15:29:15.072Z,91563.13
2023-01-15T15:31:45.494Z,91566.22
2023-01-15T15:34:24.532Z,91567.56
2023-01-15T15:36:51.225Z,91564.44
2023-01-15T15:39:34.796Z,91570.97
2023-01-15T15:42:20.227Z,91567.63
2023-01-15T15:45:15.201Z,91563.47
2023-01-15T15:48:01.221Z,91571.78
2023-01-15T15:50:32.666Z,91570.22
2023-01-15T15:53:00.174Z,91568.66
2023-01-15T15:55:31.349Z,91575.94
2023-01-15T15:58:00.621Z,91569.72
2023-01-15T16:00:32.891Z,91570.22
2023-01-15T16:03:02.338Z,91576.19
2023-01-15T16:05:31.718Z,91572.31
2023-01-15T16:08:28.529Z,91573.63
2023-01-15T16:10:56.891Z,91566.06
2023-01-15T16:13:28.541Z,91571.28
2023-01-15T16:15:56.962Z,91573.34
2023-01-15T16:18:36.207Z,91571.28
2023-01-15T16:21:03.008Z,91571.50
2023-01-15T16:23:30.586Z,91565.56
2023-01-15T16:26:14.010Z,91572.31
2023-01-15T16:28:43.664Z,91568.38
2023-01-15T16:31:10.918Z,91570.72
2023-01-15T16:33:37.872Z,91571.25
2023-01-15T16:36:05.168Z,91572.53
2023-01-15T16:38:37.225Z,91583.69
2023-01-15T16:41:03.931Z,91575.34
2023-01-15T16:43:30.503Z,91575.88
2023-01-15T16:46:07.156Z,91578.72
2023-01-15T16:48:38.169Z,91580.16
2023-01-15T16:51:31.334Z,91574.41
2023-01-15T16:53:59.164Z,91565.97
2023-01-15T16:56:27.227Z,91568.09
2023-01-15T16:58:53.968Z,91568.59
2023-01-15T17:01:56.603Z,91577.31
2023-01-15T17:04:29.853Z,91574.72
2023-01-15T17:07:03.274Z,91574.47
2023-01-15T17:09:31.913Z,91576.03
2023-01-15T17:11:59.036Z,91573.47
2023-01-15T17:14:27.031Z,91572.63
2023-01-15T17:17:16.126Z,91573.19
2023-01-15T17:19:43.042Z,91570.63
2023-01-15T17:22:35.911Z,91573.22
2023-01-15T17:25:02.766Z,91561.28
2023-01-15T17:27:29.965Z,91574.22
2023-01-15T17:29:56.597Z,91569.78
2023-01-15T17:32:36.228Z,91572.13
2023-01-15T17:35:02.893Z,91563.31
2023-01-15T17:37:29.538Z,91570.06
2023-01-15T17:39:56.144Z,91571.44
2023-01-15T17:42:22.757Z,91570.91
2023-01-15T17:44:49.487Z,91566.50
2023-01-15T17:47:16.185Z,91571.09
2023-01-15T17:49:42.832Z,91575.28
2023-01-15T17:52:16.868Z,91567.03
2023-01-15T17:55:02.035Z,91572.47
2023-01-15T17:57:47.418Z,91570.91
2023-01-15T18:00:33.035Z,91574.78
2023-01-15T18:03:18.469Z,91572.72
2023-01-15T18:05:46.318Z,91571.97
2023-01-15T18:08:13.016Z,91566.78
2023-01-15T18:10:39.710Z,91566.50
2023-01-15T18:13:08.203Z,91571.69
2023-01-15T18:15:35.051Z,91568.09
2023-01-15T18:18:01.746Z,91566.56
2023-01-15T18:20:28.466Z,91564.97
2023-01-15T18:22:55.149Z,91559.53
2023-01-15T18:25:21.773Z,91559.28
2023-01-15T18:27:50.187Z,91562.38
2023-01-15T18:30:17.141Z,91558.72
2023-01-15T18:32:45.574Z,91557.16
2023-01-15T18:35:13.605Z,91563.91
2023-01-15T18:37:40.299Z,91562.84
2023-01-15T18:40:07.682Z,91562.84
2023-01-15T18:42:52.814Z,91559.69
2023-01-15T18:45:38.148Z,91556.56
2023-01-15T18:48:04.909Z,91565.50
2023-01-15T18:50:31.508Z,91566.09
2023-01-15T18:52:58.137Z,91570.38
2023-01-15T18:55:25.881Z,91564.84
2023-01-15T18:57:53.648Z,91569.25
2023-01-15T19:00:21.339Z,91564.41
2023-01-15T19:02:48.040Z,91555.50
2023-01-15T19:05:15.434Z,91558.84
2023-01-15T19:07:45.086Z,91551.00
2023-01-15T19:10:12.613Z,91549.56
2023-01-15T19:12:39.415Z,91540.34
2023-01-15T19:15:25.777Z,91538.53
2023-01-15T19:18:11.141Z,91537.09
2023-01-15T19:20:38.840Z,91544.66
2023-01-15T19:23:06.733Z,91547.31
2023-01-15T19:25:36.858Z,91548.91
2023-01-15T19:28:03.851Z,91541.22
2023-01-15T19:30:32.254Z,91544.81
2023-01-15T19:32:58.919Z,91540.66
2023-01-15T19:35:25.578Z,91538.75
2023-01-15T19:37:53.499Z,91538.69
2023-01-15T19:40:20.272Z,91532.59
2023-01-15T19:43:05.720Z,91533.31
2023-01-15T19:45:50.885Z,91534.25
2023-01-15T19:48:35.990Z,91536.34
2023-01-15T19:51:02.735Z,91534.28
2023-01-15T19:53:29.381Z,91528.53
2023-01-15T19:55:56.075Z,91530.09
2023-01-15T19:58:22.788Z,91530.56
2023-01-15T20:00:49.789Z,91535.81
2023-01-15T20:03:16.595Z,91536.91
2023-01-15T20:05:43.980Z,91536.56
2023-01-15T20:08:15.801Z,91529.44
2023-01-15T20:10:42.967Z,91530.69
2023-01-15T20:13:34.132Z,91533.25
2023-01-15T20:16:12.358Z,91533.25
2023-01-15T20:18:39.359Z,91533.94
2023-01-15T20:21:06.532Z,91532.38
2023-01-15T20:23:33.217Z,91532.47
2023-01-15T20:26:04.023Z,91532.91
2023-01-15T20:28:30.937Z,91536.78
2023-01-15T20:30:57.694Z,91537.28
2023-01-15T20:33:24.862Z,91542.41
2023-01-15T20:35:54.042Z,91543.97
2023-01-15T20:38:22.070Z,91547.13
2023-01-15T20:40:49.220Z,91536.53
2023-01-15T20:43:34.431Z,91541.13
2023-01-15T20:46:08.751Z,91535.81
2023-01-15T20:48:54.140Z,91529.22
2023-01-15T20:51:20.756Z,91531.97
2023-01-15T20:53:49.517Z,91538.97
2023-01-15T20:56:16.217Z,91531.94
2023-01-15T20:58:43.018Z,91537.69
2023-01-15T21:01:11.050Z,91534.09
2023-01-15T21:03:38.500Z,91534.53
2023-01-15T21:06:06.152Z,91524.50
2023-01-15T21:08:33.682Z,91530.56
2023-01-15T21:11:00.407Z,91518.50
2023-01-15T21:13:27.012Z,91514.47
2023-01-15T21:16:03.633Z,91523.78
2023-01-15T21:18:30.877Z,91518.69
2023-01-15T21:20:57.606Z,91520.06
2023-01-15T21:23:24.411Z,91515.72
2023-01-15T21:25:51.124Z,91512.03
2023-01-15T21:28:17.873Z,91507.47
2023-01-15T21:30:44.894Z,91501.25
2023-01-15T21:33:11.695Z,91507.38
2023-01-15T21:35:40.612Z,91510.06
2023-01-15T21:38:08.368Z,91505.97
2023-01-15T21:40:37.042Z,91507.03
2023-01-15T21:43:22.847Z,91504.56
2023-01-15T21:45:50.960Z,91506.56
2023-01-15T21:48:18.499Z,91500.69
2023-01-15T21:50:45.176Z,91504.41
2023-01-15T21:53:11.901Z,91504.47
2023-01-15T21:55:38.607Z,91494.13
2023-01-15T21:58:05.238Z,91499.75
2023-01-15T22:00:31.953Z,91499.66
2023-01-15T22:02:58.791Z,91499.22
2023-01-15T22:05:25.428Z,91480.63
2023-01-15T22:07:52.297Z,91486.16
2023-01-15T22:10:19.032Z,91471.66
2023-01-15T22:12:45.717Z,91476.28
2023-01-15T22:15:12.422Z,91471.31
2023-01-15T22:17:39.097Z,91463.84
2023-01-15T22:20:07.204Z,91460.91
2023-01-15T22:22:36.499Z,91459.63
2023-01-15T22:25:05.329Z,91462.53
2023-01-15T22:27:34.511Z,91453.25
2023-01-15T22:30:01.376Z,91449.59
2023-01-15T22:32:28.000Z,91463.78
2023-01-15T22:34:54.708Z,91446.41
2023-01-15T22:37:21.361Z,91453.16
2023-01-15T22:39:49.320Z,91455.53
2023-01-15T22:42:24.951Z,91459.59
2023-01-15T22:44:51.682Z,91454.94
2023-01-15T22:47:18.739Z,91454.38
2023-01-15T22:49:45.535Z,91448.94
2023-01-15T22:52:12.195Z,91440.88
2023-01-15T22:54:38.904Z,91443.78
2023-01-15T22:57:05.710Z,91445.28
2023-01-15T22:59:32.247Z,91433.94
2023-01-15T23:01:59.086Z,91436.50
2023-01-15T23:04:25.875Z,91430.03
2023-01-15T23:06:52.787Z,91430.97
2023-01-15T23:09:20.445Z,91434.06
2023-01-15T23:11:47.235Z,91426.53
2023-01-15T23:14:15.739Z,91431.25
2023-01-15T23:16:43.133Z,91425.88
2023-01-15T23:19:09.935Z,91431.16
2023-01-15T23:21:36.523Z,91434.44
2023-01-15T23:24:03.365Z,91430.63
2023-01-15T23:26:31.709Z,91417.16
2023-01-15T23:28:58.719Z,91422.34
2023-01-15T23:31:25.343Z,91422.63
2023-01-15T23:33:52.120Z,91420.59
2023-01-15T23:36:18.739Z,91421.78
2023-01-15T23:38:46.782Z,91420.00
2023-01-15T23:41:15.397Z,91414.09
2023-01-15T23:44:01.191Z,91401.25
2023-01-15T23:46:34.983Z,91400.25
2023-01-15T23:49:02.592Z,91393.03
2023-01-15T23:51:29.602Z,91388.63
2023-01-15T23:53:56.714Z,91397.09
2023-01-15T23:56:23.438Z,91392.13
2023-01-15T23:58:50.193Z,91397.38
